sensor_id;sensor_type;location;lat;lon;timestamp;P1;P2;P0
56495;PMS5003;42804;55.762;38.084;2024-03-02T00:01:06;111.20;87.80;52.80
56495;PMS5003;42804;55.762;38.084;2024-03-02T00:03:34;96.20;70.40;40.80
56495;PMS5003;42804;55.762;38.084;2024-03-02T00:06:04;109.60;84.60;52.20
56495;PMS5003;42804;55.762;38.084;2024-03-02T00:08:34;113.00;85.80;51.00
56495;PMS5003;42804;55.762;38.084;2024-03-02T00:11:03;107.40;87.40;51.80
56495;PMS5003;42804;55.762;38.084;2024-03-02T00:13:31;111.20;86.60;51.60
56495;PMS5003;42804;55.762;38.084;2024-03-02T00:16:00;107.00;80.80;48.60
56495;PMS5003;42804;55.762;38.084;2024-03-02T00:18:32;111.20;84.00;48.60
56495;PMS5003;42804;55.762;38.084;2024-03-02T00:21:01;115.40;84.00;50.00
56495;PMS5003;42804;55.762;38.084;2024-03-02T00:23:30;109.20;80.80;50.80
56495;PMS5003;42804;55.762;38.084;2024-03-02T00:26:00;102.40;78.00;49.60
56495;PMS5003;42804;55.762;38.084;2024-03-02T00:28:29;105.80;76.20;46.80
56495;PMS5003;42804;55.762;38.084;2024-03-02T00:31:04;117.80;89.00;53.60
56495;PMS5003;42804;55.762;38.084;2024-03-02T00:33:35;95.80;74.40;45.20
56495;PMS5003;42804;55.762;38.084;2024-03-02T00:36:04;103.60;74.40;45.00
56495;PMS5003;42804;55.762;38.084;2024-03-02T00:38:34;109.40;82.40;48.60
56495;PMS5003;42804;55.762;38.084;2024-03-02T00:41:05;98.20;69.80;39.00
56495;PMS5003;42804;55.762;38.084;2024-03-02T00:43:41;89.80;72.80;47.60
56495;PMS5003;42804;55.762;38.084;2024-03-02T00:46:15;110.60;76.40;48.00
56495;PMS5003;42804;55.762;38.084;2024-03-02T00:48:54;100.80;75.40;48.00
56495;PMS5003;42804;55.762;38.084;2024-03-02T00:51:23;107.20;80.00;49.00
56495;PMS5003;42804;55.762;38.084;2024-03-02T00:53:52;85.20;65.20;40.80
56495;PMS5003;42804;55.762;38.084;2024-03-02T00:56:24;108.00;76.20;46.80
56495;PMS5003;42804;55.762;38.084;2024-03-02T00:58:53;102.40;76.80;48.00
56495;PMS5003;42804;55.762;38.084;2024-03-02T01:01:21;96.40;72.80;46.20
56495;PMS5003;42804;55.762;38.084;2024-03-02T01:03:50;98.40;74.00;45.60
56495;PMS5003;42804;55.762;38.084;2024-03-02T01:06:19;104.20;74.80;45.40
56495;PMS5003;42804;55.762;38.084;2024-03-02T01:08:47;100.40;75.80;48.00
56495;PMS5003;42804;55.762;38.084;2024-03-02T01:11:19;98.60;74.00;46.00
56495;PMS5003;42804;55.762;38.084;2024-03-02T01:13:51;99.20;72.60;44.40
56495;PMS5003;42804;55.762;38.084;2024-03-02T01:16:20;99.20;69.80;42.00
56495;PMS5003;42804;55.762;38.084;2024-03-02T01:18:48;101.20;75.60;46.20
56495;PMS5003;42804;55.762;38.084;2024-03-02T01:21:17;102.80;72.60;41.20
56495;PMS5003;42804;55.762;38.084;2024-03-02T01:23:46;101.40;75.20;45.20
56495;PMS5003;42804;55.762;38.084;2024-03-02T01:26:14;94.20;70.00;44.60
56495;PMS5003;42804;55.762;38.084;2024-03-02T01:28:42;82.00;67.40;45.00
56495;PMS5003;42804;55.762;38.084;2024-03-02T01:31:12;97.20;72.80;45.00
56495;PMS5003;42804;55.762;38.084;2024-03-02T01:33:40;97.60;73.00;45.20
56495;PMS5003;42804;55.762;38.084;2024-03-02T01:36:09;98.20;72.20;45.20
56495;PMS5003;42804;55.762;38.084;2024-03-02T01:38:37;99.80;73.20;45.20
56495;PMS5003;42804;55.762;38.084;2024-03-02T01:41:05;97.00;72.40;45.80
56495;PMS5003;42804;55.762;38.084;2024-03-02T01:43:34;99.80;71.20;45.20
56495;PMS5003;42804;55.762;38.084;2024-03-02T01:46:06;101.20;73.80;45.60
56495;PMS5003;42804;55.762;38.084;2024-03-02T01:48:37;99.20;72.00;45.40
56495;PMS5003;42804;55.762;38.084;2024-03-02T01:51:06;83.40;60.40;33.20
56495;PMS5003;42804;55.762;38.084;2024-03-02T01:53:34;94.00;69.60;45.80
56495;PMS5003;42804;55.762;38.084;2024-03-02T01:56:03;95.60;71.40;46.00
56495;PMS5003;42804;55.762;38.084;2024-03-02T01:58:31;98.60;72.80;46.60
56495;PMS5003;42804;55.762;38.084;2024-03-02T02:00:59;102.80;76.20;47.20
56495;PMS5003;42804;55.762;38.084;2024-03-02T02:03:28;88.40;64.00;43.40
56495;PMS5003;42804;55.762;38.084;2024-03-02T02:05:58;104.20;78.40;49.00
56495;PMS5003;42804;55.762;38.084;2024-03-02T02:08:26;108.20;80.60;49.60
56495;PMS5003;42804;55.762;38.084;2024-03-02T02:10:54;104.20;75.80;46.40
56495;PMS5003;42804;55.762;38.084;2024-03-02T02:13:23;108.20;74.60;46.60
56495;PMS5003;42804;55.762;38.084;2024-03-02T02:15:51;98.60;72.60;47.80
56495;PMS5003;42804;55.762;38.084;2024-03-02T02:18:20;108.60;78.00;49.60
56495;PMS5003;42804;55.762;38.084;2024-03-02T02:20:49;103.60;78.00;49.80
56495;PMS5003;42804;55.762;38.084;2024-03-02T02:23:18;104.60;76.00;47.40
56495;PMS5003;42804;55.762;38.084;2024-03-02T02:25:47;103.20;78.40;48.20
56495;PMS5003;42804;55.762;38.084;2024-03-02T02:28:15;101.40;71.40;42.60
56495;PMS5003;42804;55.762;38.084;2024-03-02T02:30:44;101.00;72.80;44.60
56495;PMS5003;42804;55.762;38.084;2024-03-02T02:33:12;102.40;75.60;48.40
56495;PMS5003;42804;55.762;38.084;2024-03-02T02:35:40;112.40;83.80;50.60
56495;PMS5003;42804;55.762;38.084;2024-03-02T02:38:09;107.20;83.40;50.00
56495;PMS5003;42804;55.762;38.084;2024-03-02T02:40:38;104.80;76.20;47.00
56495;PMS5003;42804;55.762;38.084;2024-03-02T02:43:07;102.00;76.80;47.40
56495;PMS5003;42804;55.762;38.084;2024-03-02T02:45:34;108.80;77.60;49.20
56495;PMS5003;42804;55.762;38.084;2024-03-02T02:48:02;106.60;79.20;47.80
56495;PMS5003;42804;55.762;38.084;2024-03-02T02:50:32;107.60;78.60;48.40
56495;PMS5003;42804;55.762;38.084;2024-03-02T02:53:00;107.60;79.00;49.00
56495;PMS5003;42804;55.762;38.084;2024-03-02T02:55:28;101.00;72.60;47.00
56495;PMS5003;42804;55.762;38.084;2024-03-02T02:57:58;109.40;79.60;49.00
56495;PMS5003;42804;55.762;38.084;2024-03-02T03:00:27;111.60;83.60;51.00
56495;PMS5003;42804;55.762;38.084;2024-03-02T03:02:55;104.60;78.20;51.20
56495;PMS5003;42804;55.762;38.084;2024-03-02T03:05:23;109.00;81.60;51.00
56495;PMS5003;42804;55.762;38.084;2024-03-02T03:07:52;107.00;81.40;50.20
56495;PMS5003;42804;55.762;38.084;2024-03-02T03:10:20;114.40;86.20;53.00
56495;PMS5003;42804;55.762;38.084;2024-03-02T03:12:50;111.60;78.80;48.80
56495;PMS5003;42804;55.762;38.084;2024-03-02T03:15:20;111.20;79.80;48.40
56495;PMS5003;42804;55.762;38.084;2024-03-02T03:17:48;115.80;86.60;51.00
56495;PMS5003;42804;55.762;38.084;2024-03-02T03:20:17;111.60;84.00;49.00
56495;PMS5003;42804;55.762;38.084;2024-03-02T03:22:48;114.20;82.00;51.60
56495;PMS5003;42804;55.762;38.084;2024-03-02T03:25:16;111.80;78.40;51.20
56495;PMS5003;42804;55.762;38.084;2024-03-02T03:27:45;100.60;74.00;44.20
56495;PMS5003;42804;55.762;38.084;2024-03-02T03:30:13;110.20;85.80;51.00
56495;PMS5003;42804;55.762;38.084;2024-03-02T03:32:43;106.60;85.20;50.80
56495;PMS5003;42804;55.762;38.084;2024-03-02T03:35:11;106.80;81.00;50.60
56495;PMS5003;42804;55.762;38.084;2024-03-02T03:37:42;103.80;78.60;48.40
56495;PMS5003;42804;55.762;38.084;2024-03-02T03:40:10;108.80;80.40;49.20
56495;PMS5003;42804;55.762;38.084;2024-03-02T03:42:39;112.20;80.40;47.80
56495;PMS5003;42804;55.762;38.084;2024-03-02T03:45:07;109.60;79.40;49.40
56495;PMS5003;42804;55.762;38.084;2024-03-02T03:47:36;108.40;78.20;47.80
56495;PMS5003;42804;55.762;38.084;2024-03-02T03:50:06;114.80;92.00;57.40
56495;PMS5003;42804;55.762;38.084;2024-03-02T03:52:35;107.80;76.80;49.20
56495;PMS5003;42804;55.762;38.084;2024-03-02T03:55:04;116.20;90.40;51.80
56495;PMS5003;42804;55.762;38.084;2024-03-02T03:57:33;110.80;86.00;52.40
56495;PMS5003;42804;55.762;38.084;2024-03-02T04:00:02;111.00;80.00;47.60
56495;PMS5003;42804;55.762;38.084;2024-03-02T04:02:38;109.20;84.00;50.40
56495;PMS5003;42804;55.762;38.084;2024-03-02T04:05:08;97.60;73.80;49.00
56495;PMS5003;42804;55.762;38.084;2024-03-02T04:07:38;110.00;80.60;51.00
56495;PMS5003;42804;55.762;38.084;2024-03-02T04:10:08;108.40;82.00;52.00
56495;PMS5003;42804;55.762;38.084;2024-03-02T04:12:37;109.20;79.40;48.80
56495;PMS5003;42804;55.762;38.084;2024-03-02T04:15:05;109.00;77.60;48.20
56495;PMS5003;42804;55.762;38.084;2024-03-02T04:17:34;108.80;78.40;49.00
56495;PMS5003;42804;55.762;38.084;2024-03-02T04:20:03;109.80;75.80;47.00
56495;PMS5003;42804;55.762;38.084;2024-03-02T04:22:34;94.40;71.20;45.80
56495;PMS5003;42804;55.762;38.084;2024-03-02T04:25:03;105.20;80.00;49.80
56495;PMS5003;42804;55.762;38.084;2024-03-02T04:27:32;109.00;84.00;51.20
56495;PMS5003;42804;55.762;38.084;2024-03-02T04:30:01;111.80;77.80;47.80
56495;PMS5003;42804;55.762;38.084;2024-03-02T04:32:30;108.60;76.40;48.00
56495;PMS5003;42804;55.762;38.084;2024-03-02T04:34:59;104.40;78.20;51.00
56495;PMS5003;42804;55.762;38.084;2024-03-02T04:37:28;100.60;69.20;42.60
56495;PMS5003;42804;55.762;38.084;2024-03-02T04:39:59;103.20;77.40;49.20
56495;PMS5003;42804;55.762;38.084;2024-03-02T04:42:29;95.00;69.00;46.00
56495;PMS5003;42804;55.762;38.084;2024-03-02T04:44:57;101.60;73.80;47.00
56495;PMS5003;42804;55.762;38.084;2024-03-02T04:47:25;106.20;78.20;49.00
56495;PMS5003;42804;55.762;38.084;2024-03-02T04:49:54;99.40;69.80;42.00
56495;PMS5003;42804;55.762;38.084;2024-03-02T04:52:22;100.80;72.00;46.00
56495;PMS5003;42804;55.762;38.084;2024-03-02T04:54:50;99.40;74.40;45.00
56495;PMS5003;42804;55.762;38.084;2024-03-02T04:57:37;102.80;73.60;46.00
56495;PMS5003;42804;55.762;38.084;2024-03-02T05:00:06;102.00;76.60;46.00
56495;PMS5003;42804;55.762;38.084;2024-03-02T05:02:35;100.20;73.00;46.00
56495;PMS5003;42804;55.762;38.084;2024-03-02T05:05:04;93.00;72.20;47.40
56495;PMS5003;42804;55.762;38.084;2024-03-02T05:07:32;98.40;70.60;46.00
56495;PMS5003;42804;55.762;38.084;2024-03-02T05:10:00;92.40;66.80;42.80
56495;PMS5003;42804;55.762;38.084;2024-03-02T05:12:29;89.20;67.80;42.60
56495;PMS5003;42804;55.762;38.084;2024-03-02T05:15:18;86.40;67.60;42.20
56495;PMS5003;42804;55.762;38.084;2024-03-02T05:17:46;93.80;66.40;41.80
56495;PMS5003;42804;55.762;38.084;2024-03-02T05:20:14;84.60;66.80;40.00
56495;PMS5003;42804;55.762;38.084;2024-03-02T05:22:43;93.00;69.00;42.00
56495;PMS5003;42804;55.762;38.084;2024-03-02T05:25:12;93.00;70.20;43.80
56495;PMS5003;42804;55.762;38.084;2024-03-02T05:27:40;88.00;65.00;36.80
56495;PMS5003;42804;55.762;38.084;2024-03-02T05:30:09;89.80;66.60;42.20
56495;PMS5003;42804;55.762;38.084;2024-03-02T05:32:39;92.20;66.60;42.00
56495;PMS5003;42804;55.762;38.084;2024-03-02T05:35:07;75.20;59.80;37.60
56495;PMS5003;42804;55.762;38.084;2024-03-02T05:37:38;75.80;54.20;35.40
56495;PMS5003;42804;55.762;38.084;2024-03-02T05:40:06;77.80;60.40;39.00
56495;PMS5003;42804;55.762;38.084;2024-03-02T05:42:35;84.00;64.80;39.40
56495;PMS5003;42804;55.762;38.084;2024-03-02T05:45:04;85.40;62.60;38.60
56495;PMS5003;42804;55.762;38.084;2024-03-02T05:47:32;80.40;57.60;34.00
56495;PMS5003;42804;55.762;38.084;2024-03-02T05:50:02;83.40;63.80;39.80
56495;PMS5003;42804;55.762;38.084;2024-03-02T05:52:31;89.80;66.40;42.00
56495;PMS5003;42804;55.762;38.084;2024-03-02T05:55:00;86.20;64.00;40.00
56495;PMS5003;42804;55.762;38.084;2024-03-02T05:57:29;87.80;61.80;39.00
56495;PMS5003;42804;55.762;38.084;2024-03-02T06:00:15;85.80;64.40;40.00
56495;PMS5003;42804;55.762;38.084;2024-03-02T06:02:44;81.00;62.00;40.60
56495;PMS5003;42804;55.762;38.084;2024-03-02T06:05:15;82.40;63.00;39.80
56495;PMS5003;42804;55.762;38.084;2024-03-02T06:07:43;79.20;60.80;38.80
56495;PMS5003;42804;55.762;38.084;2024-03-02T06:10:12;93.00;69.00;43.00
56495;PMS5003;42804;55.762;38.084;2024-03-02T06:12:41;92.80;69.20;42.00
56495;PMS5003;42804;55.762;38.084;2024-03-02T06:15:10;92.40;66.80;41.00
56495;PMS5003;42804;55.762;38.084;2024-03-02T06:17:39;91.20;65.60;39.80
56495;PMS5003;42804;55.762;38.084;2024-03-02T06:20:08;89.40;67.00;41.20
56495;PMS5003;42804;55.762;38.084;2024-03-02T06:22:38;89.60;64.00;42.80
56495;PMS5003;42804;55.762;38.084;2024-03-02T06:25:06;82.60;62.20;40.40
56495;PMS5003;42804;55.762;38.084;2024-03-02T06:27:35;82.20;57.40;41.20
56495;PMS5003;42804;55.762;38.084;2024-03-02T06:30:04;81.40;63.60;36.60
56495;PMS5003;42804;55.762;38.084;2024-03-02T06:32:32;84.20;62.00;36.00
56495;PMS5003;42804;55.762;38.084;2024-03-02T06:35:01;87.60;66.20;42.00
56495;PMS5003;42804;55.762;38.084;2024-03-02T06:37:30;90.40;69.00;44.00
56495;PMS5003;42804;55.762;38.084;2024-03-02T06:40:00;90.00;66.20;41.60
56495;PMS5003;42804;55.762;38.084;2024-03-02T06:42:29;89.40;68.00;42.80
56495;PMS5003;42804;55.762;38.084;2024-03-02T06:45:01;94.00;70.20;43.80
56495;PMS5003;42804;55.762;38.084;2024-03-02T06:47:31;89.80;68.00;41.60
56495;PMS5003;42804;55.762;38.084;2024-03-02T06:50:00;94.80;69.60;43.00
56495;PMS5003;42804;55.762;38.084;2024-03-02T06:52:29;94.20;68.20;43.80
56495;PMS5003;42804;55.762;38.084;2024-03-02T06:54:58;82.40;63.80;40.00
56495;PMS5003;42804;55.762;38.084;2024-03-02T06:57:30;95.20;69.00;43.00
56495;PMS5003;42804;55.762;38.084;2024-03-02T06:59:58;87.40;66.40;40.60
56495;PMS5003;42804;55.762;38.084;2024-03-02T07:02:27;97.20;69.80;43.00
56495;PMS5003;42804;55.762;38.084;2024-03-02T07:04:55;90.20;68.60;41.80
56495;PMS5003;42804;55.762;38.084;2024-03-02T07:07:24;95.60;71.00;44.40
56495;PMS5003;42804;55.762;38.084;2024-03-02T07:09:52;89.60;65.80;40.20
56495;PMS5003;42804;55.762;38.084;2024-03-02T07:12:21;88.60;66.00;40.80
56495;PMS5003;42804;55.762;38.084;2024-03-02T07:14:50;89.20;64.00;40.00
56495;PMS5003;42804;55.762;38.084;2024-03-02T07:17:34;79.80;58.40;34.40
56495;PMS5003;42804;55.762;38.084;2024-03-02T07:20:04;86.80;66.60;41.20
56495;PMS5003;42804;55.762;38.084;2024-03-02T07:22:33;91.00;67.00;42.20
56495;PMS5003;42804;55.762;38.084;2024-03-02T07:25:02;90.60;66.00;39.20
56495;PMS5003;42804;55.762;38.084;2024-03-02T07:27:31;90.80;67.40;41.40
56495;PMS5003;42804;55.762;38.084;2024-03-02T07:30:02;84.20;61.60;36.60
56495;PMS5003;42804;55.762;38.084;2024-03-02T07:32:31;89.20;65.40;41.00
56495;PMS5003;42804;55.762;38.084;2024-03-02T07:34:59;88.60;64.20;40.00
56495;PMS5003;42804;55.762;38.084;2024-03-02T07:37:30;81.60;62.40;39.20
56495;PMS5003;42804;55.762;38.084;2024-03-02T07:39:58;80.00;59.20;38.60
56495;PMS5003;42804;55.762;38.084;2024-03-02T07:42:29;85.00;64.60;41.00
56495;PMS5003;42804;55.762;38.084;2024-03-02T07:44:57;87.00;66.80;40.80
56495;PMS5003;42804;55.762;38.084;2024-03-02T07:47:27;89.40;65.60;41.80
56495;PMS5003;42804;55.762;38.084;2024-03-02T07:49:56;92.40;65.20;41.00
56495;PMS5003;42804;55.762;38.084;2024-03-02T07:52:24;85.80;63.60;39.00
56495;PMS5003;42804;55.762;38.084;2024-03-02T07:54:53;88.60;62.20;39.20
56495;PMS5003;42804;55.762;38.084;2024-03-02T07:57:22;84.20;65.20;39.20
56495;PMS5003;42804;55.762;38.084;2024-03-02T07:59:50;85.60;63.80;38.40
56495;PMS5003;42804;55.762;38.084;2024-03-02T08:02:19;87.80;63.00;39.60
56495;PMS5003;42804;55.762;38.084;2024-03-02T08:04:49;78.60;62.00;38.60
56495;PMS5003;42804;55.762;38.084;2024-03-02T08:07:17;85.60;63.00;40.80
56495;PMS5003;42804;55.762;38.084;2024-03-02T08:09:45;82.40;65.40;40.20
56495;PMS5003;42804;55.762;38.084;2024-03-02T08:12:14;79.80;59.60;31.00
56495;PMS5003;42804;55.762;38.084;2024-03-02T08:14:42;83.60;63.20;39.20
56495;PMS5003;42804;55.762;38.084;2024-03-02T08:17:10;85.60;62.40;40.20
56495;PMS5003;42804;55.762;38.084;2024-03-02T08:19:39;80.40;60.40;39.00
56495;PMS5003;42804;55.762;38.084;2024-03-02T08:22:26;79.20;59.20;38.80
56495;PMS5003;42804;55.762;38.084;2024-03-02T08:24:54;84.60;62.20;40.20
56495;PMS5003;42804;55.762;38.084;2024-03-02T08:27:23;84.40;60.80;39.00
56495;PMS5003;42804;55.762;38.084;2024-03-02T08:29:52;79.40;61.00;38.20
56495;PMS5003;42804;55.762;38.084;2024-03-02T08:32:22;85.20;64.00;41.00
56495;PMS5003;42804;55.762;38.084;2024-03-02T08:34:54;84.00;63.00;39.80
56495;PMS5003;42804;55.762;38.084;2024-03-02T08:37:22;79.80;60.60;36.40
56495;PMS5003;42804;55.762;38.084;2024-03-02T08:39:52;81.60;62.40;38.00
56495;PMS5003;42804;55.762;38.084;2024-03-02T08:42:20;77.20;61.00;38.40
56495;PMS5003;42804;55.762;38.084;2024-03-02T08:44:50;81.20;61.40;39.00
56495;PMS5003;42804;55.762;38.084;2024-03-02T08:47:19;85.20;61.60;36.80
56495;PMS5003;42804;55.762;38.084;2024-03-02T08:50:04;80.20;62.20;41.20
56495;PMS5003;42804;55.762;38.084;2024-03-02T08:52:33;90.40;66.60;41.00
56495;PMS5003;42804;55.762;38.084;2024-03-02T08:55:04;87.80;60.60;39.20
56495;PMS5003;42804;55.762;38.084;2024-03-02T08:57:33;82.80;64.40;41.40
56495;PMS5003;42804;55.762;38.084;2024-03-02T09:00:01;86.60;64.80;41.40
56495;PMS5003;42804;55.762;38.084;2024-03-02T09:02:32;84.80;64.20;42.00
56495;PMS5003;42804;55.762;38.084;2024-03-02T09:05:00;86.00;61.60;39.40
56495;PMS5003;42804;55.762;38.084;2024-03-02T09:07:29;87.40;65.20;40.00
56495;PMS5003;42804;55.762;38.084;2024-03-02T09:09:58;85.40;63.00;39.00
56495;PMS5003;42804;55.762;38.084;2024-03-02T09:12:28;80.40;64.20;40.60
56495;PMS5003;42804;55.762;38.084;2024-03-02T09:14:56;79.00;58.40;36.80
56495;PMS5003;42804;55.762;38.084;2024-03-02T09:17:24;78.40;58.40;39.20
56495;PMS5003;42804;55.762;38.084;2024-03-02T09:19:53;82.80;60.00;41.60
56495;PMS5003;42804;55.762;38.084;2024-03-02T09:22:21;83.00;60.80;37.80
56495;PMS5003;42804;55.762;38.084;2024-03-02T09:24:50;78.60;59.00;36.60
56495;PMS5003;42804;55.762;38.084;2024-03-02T09:27:18;85.20;61.80;39.20
56495;PMS5003;42804;55.762;38.084;2024-03-02T09:29:48;77.00;54.20;32.20
56495;PMS5003;42804;55.762;38.084;2024-03-02T09:32:17;76.20;54.80;36.00
56495;PMS5003;42804;55.762;38.084;2024-03-02T09:34:45;73.60;56.80;36.80
56495;PMS5003;42804;55.762;38.084;2024-03-02T09:37:15;69.40;53.20;32.00
56495;PMS5003;42804;55.762;38.084;2024-03-02T09:39:43;66.40;51.00;34.60
56495;PMS5003;42804;55.762;38.084;2024-03-02T09:42:13;76.60;60.40;36.20
56495;PMS5003;42804;55.762;38.084;2024-03-02T09:44:41;70.80;57.40;35.80
56495;PMS5003;42804;55.762;38.084;2024-03-02T09:47:11;70.60;52.40;32.00
56495;PMS5003;42804;55.762;38.084;2024-03-02T09:49:40;65.40;48.80;30.20
56495;PMS5003;42804;55.762;38.084;2024-03-02T09:52:08;58.60;47.00;30.40
56495;PMS5003;42804;55.762;38.084;2024-03-02T09:54:38;69.60;54.60;34.60
56495;PMS5003;42804;55.762;38.084;2024-03-02T09:57:06;70.20;55.80;34.00
56495;PMS5003;42804;55.762;38.084;2024-03-02T09:59:35;55.20;49.20;31.80
56495;PMS5003;42804;55.762;38.084;2024-03-02T10:02:22;67.20;53.00;33.20
56495;PMS5003;42804;55.762;38.084;2024-03-02T10:04:50;65.80;51.20;32.00
56495;PMS5003;42804;55.762;38.084;2024-03-02T10:07:19;70.00;54.40;33.20
56495;PMS5003;42804;55.762;38.084;2024-03-02T10:09:48;68.00;54.40;34.20
56495;PMS5003;42804;55.762;38.084;2024-03-02T10:12:17;53.20;48.60;31.20
56495;PMS5003;42804;55.762;38.084;2024-03-02T10:14:45;66.80;54.40;35.60
56495;PMS5003;42804;55.762;38.084;2024-03-02T10:17:17;75.00;54.00;34.00
56495;PMS5003;42804;55.762;38.084;2024-03-02T10:19:47;70.00;54.40;34.40
56495;PMS5003;42804;55.762;38.084;2024-03-02T10:22:15;64.80;49.80;31.80
56495;PMS5003;42804;55.762;38.084;2024-03-02T10:24:44;63.80;54.80;33.00
56495;PMS5003;42804;55.762;38.084;2024-03-02T10:27:15;65.00;48.80;28.60
56495;PMS5003;42804;55.762;38.084;2024-03-02T10:29:45;63.80;50.60;31.80
56495;PMS5003;42804;55.762;38.084;2024-03-02T10:32:14;61.60;48.20;31.20
56495;PMS5003;42804;55.762;38.084;2024-03-02T10:34:44;70.20;52.80;31.60
56495;PMS5003;42804;55.762;38.084;2024-03-02T10:37:16;63.40;46.40;28.60
56495;PMS5003;42804;55.762;38.084;2024-03-02T10:39:45;67.40;48.00;32.40
56495;PMS5003;42804;55.762;38.084;2024-03-02T10:42:15;68.40;51.60;32.00
56495;PMS5003;42804;55.762;38.084;2024-03-02T10:44:44;66.80;53.80;34.60
56495;PMS5003;42804;55.762;38.084;2024-03-02T10:47:13;56.00;46.00;28.00
56495;PMS5003;42804;55.762;38.084;2024-03-02T10:49:42;59.00;47.20;28.00
56495;PMS5003;42804;55.762;38.084;2024-03-02T10:52:11;67.60;51.40;32.00
56495;PMS5003;42804;55.762;38.084;2024-03-02T10:54:41;67.00;52.40;31.60
56495;PMS5003;42804;55.762;38.084;2024-03-02T10:57:10;50.60;46.20;29.20
56495;PMS5003;42804;55.762;38.084;2024-03-02T10:59:42;63.00;49.20;31.60
56495;PMS5003;42804;55.762;38.084;2024-03-02T11:02:15;62.40;46.80;28.00
56495;PMS5003;42804;55.762;38.084;2024-03-02T11:04:44;53.80;42.40;28.00
56495;PMS5003;42804;55.762;38.084;2024-03-02T11:07:14;63.60;51.40;33.00
56495;PMS5003;42804;55.762;38.084;2024-03-02T11:09:54;66.00;53.00;32.60
56495;PMS5003;42804;55.762;38.084;2024-03-02T11:12:23;60.20;46.00;27.20
56495;PMS5003;42804;55.762;38.084;2024-03-02T11:14:56;65.60;53.00;32.20
56495;PMS5003;42804;55.762;38.084;2024-03-02T11:17:45;68.60;50.00;30.60
56495;PMS5003;42804;55.762;38.084;2024-03-02T11:20:14;66.80;53.20;33.20
56495;PMS5003;42804;55.762;38.084;2024-03-02T11:22:45;67.40;51.60;30.20
56495;PMS5003;42804;55.762;38.084;2024-03-02T11:25:25;60.40;48.00;31.80
56495;PMS5003;42804;55.762;38.084;2024-03-02T11:28:01;64.80;48.40;32.00
56495;PMS5003;42804;55.762;38.084;2024-03-02T11:30:49;58.20;48.40;30.00
56495;PMS5003;42804;55.762;38.084;2024-03-02T11:33:24;58.60;46.80;31.60
56495;PMS5003;42804;55.762;38.084;2024-03-02T11:35:54;66.40;49.00;30.60
56495;PMS5003;42804;55.762;38.084;2024-03-02T11:38:26;60.80;49.00;28.80
56495;PMS5003;42804;55.762;38.084;2024-03-02T11:40:57;64.60;47.80;28.20
56495;PMS5003;42804;55.762;38.084;2024-03-02T11:43:28;63.80;43.80;28.00
56495;PMS5003;42804;55.762;38.084;2024-03-02T11:45:58;63.00;49.20;30.60
56495;PMS5003;42804;55.762;38.084;2024-03-02T11:48:27;61.60;50.20;30.60
56495;PMS5003;42804;55.762;38.084;2024-03-02T11:50:58;69.80;51.20;32.00
56495;PMS5003;42804;55.762;38.084;2024-03-02T11:53:27;56.80;43.60;27.00
56495;PMS5003;42804;55.762;38.084;2024-03-02T11:56:00;66.60;50.20;31.40
56495;PMS5003;42804;55.762;38.084;2024-03-02T11:58:32;50.80;43.60;27.20
56495;PMS5003;42804;55.762;38.084;2024-03-02T12:01:02;38.00;29.80;20.00
56495;PMS5003;42804;55.762;38.084;2024-03-02T12:03:32;54.20;45.60;27.40
56495;PMS5003;42804;55.762;38.084;2024-03-02T12:05:59;62.00;44.00;27.40
56495;PMS5003;42804;55.762;38.084;2024-03-02T12:08:29;57.40;46.00;28.00
56495;PMS5003;42804;55.762;38.084;2024-03-02T12:11:00;57.40;47.00;28.60
56495;PMS5003;42804;55.762;38.084;2024-03-02T12:13:30;54.20;46.40;28.40
56495;PMS5003;42804;55.762;38.084;2024-03-02T12:16:00;55.80;46.00;29.20
56495;PMS5003;42804;55.762;38.084;2024-03-02T12:18:29;64.00;50.20;31.60
56495;PMS5003;42804;55.762;38.084;2024-03-02T12:20:58;62.60;46.80;29.80
56495;PMS5003;42804;55.762;38.084;2024-03-02T12:23:26;52.80;43.00;30.40
56495;PMS5003;42804;55.762;38.084;2024-03-02T12:25:55;59.00;47.40;30.60
56495;PMS5003;42804;55.762;38.084;2024-03-02T12:28:25;53.60;45.00;29.40
56495;PMS5003;42804;55.762;38.084;2024-03-02T12:30:53;53.20;45.80;28.60
56495;PMS5003;42804;55.762;38.084;2024-03-02T12:33:39;61.00;45.60;24.00
56495;PMS5003;42804;55.762;38.084;2024-03-02T12:36:09;60.20;46.80;27.00
56495;PMS5003;42804;55.762;38.084;2024-03-02T12:38:43;38.40;34.20;24.60
56495;PMS5003;42804;55.762;38.084;2024-03-02T12:41:11;70.20;51.80;32.20
56495;PMS5003;42804;55.762;38.084;2024-03-02T12:43:43;66.80;50.40;29.20
56495;PMS5003;42804;55.762;38.084;2024-03-02T12:46:12;61.00;51.00;30.40
56495;PMS5003;42804;55.762;38.084;2024-03-02T12:48:40;65.80;53.00;32.40
56495;PMS5003;42804;55.762;38.084;2024-03-02T12:51:09;65.00;47.20;27.60
56495;PMS5003;42804;55.762;38.084;2024-03-02T12:53:37;71.80;51.80;31.80
56495;PMS5003;42804;55.762;38.084;2024-03-02T12:56:07;66.60;51.20;33.00
56495;PMS5003;42804;55.762;38.084;2024-03-02T12:58:38;67.20;54.20;33.00
56495;PMS5003;42804;55.762;38.084;2024-03-02T13:01:09;71.20;53.60;33.80
56495;PMS5003;42804;55.762;38.084;2024-03-02T13:03:38;66.80;54.00;33.60
56495;PMS5003;42804;55.762;38.084;2024-03-02T13:06:11;55.80;46.40;31.00
56495;PMS5003;42804;55.762;38.084;2024-03-02T13:08:39;62.00;47.60;29.60
56495;PMS5003;42804;55.762;38.084;2024-03-02T13:11:08;71.40;53.00;32.80
56495;PMS5003;42804;55.762;38.084;2024-03-02T13:13:37;67.60;54.80;34.40
56495;PMS5003;42804;55.762;38.084;2024-03-02T13:16:07;69.20;51.20;32.20
56495;PMS5003;42804;55.762;38.084;2024-03-02T13:18:38;73.00;57.60;36.00
56495;PMS5003;42804;55.762;38.084;2024-03-02T13:21:06;44.20;33.60;18.80
56495;PMS5003;42804;55.762;38.084;2024-03-02T13:23:35;68.40;56.00;34.80
56495;PMS5003;42804;55.762;38.084;2024-03-02T13:26:03;66.20;55.20;33.80
56495;PMS5003;42804;55.762;38.084;2024-03-02T13:28:31;65.20;52.00;32.80
56495;PMS5003;42804;55.762;38.084;2024-03-02T13:31:00;58.80;45.20;29.00
56495;PMS5003;42804;55.762;38.084;2024-03-02T13:33:29;67.60;54.20;36.00
56495;PMS5003;42804;55.762;38.084;2024-03-02T13:36:01;63.00;52.00;31.80
56495;PMS5003;42804;55.762;38.084;2024-03-02T13:38:31;66.40;52.00;33.00
56495;PMS5003;42804;55.762;38.084;2024-03-02T13:40:59;70.40;54.20;34.00
56495;PMS5003;42804;55.762;38.084;2024-03-02T13:43:28;56.80;49.00;33.60
56495;PMS5003;42804;55.762;38.084;2024-03-02T13:45:58;48.20;44.80;31.00